Fort Yates, North Dakota
Current Conditions -  °F | °C
As of 1:15 PM on Thursday 23 Oct 2014 (Local Time) from K7L2 Reporting Station
Clear Clear  
Wind Chill: 70°   Ceiling: Unl
Heat Index: 70°   Visibility: 10mi
Dew Point: 36°   Wind: 10mph
Humidity: 28%   Direction: 240°WSW
Pressure: 29.87"   Gusts: NA
Location:  46.09°N, 100.64°W
Report Text: K7L2 231915Z AUTO 24009KT 10SM CLR 21/02 A2987 RMK AO2 PWINO PNO
Loading
Personal Weather Stations






























Interactive Weather Map
Tropical Storm Tracking
New forecast layout! Learn more

10-Day Weather Forecast

Advertisements
Track Severe Weather on mobile